createdAt,value
2024-03-14T00:01:26.660Z,8.00
2024-03-14T00:03:55.611Z,8.00
2024-03-14T00:06:24.714Z,7.92
2024-03-14T00:49:39.912Z,7.80
2024-03-14T00:52:10.142Z,7.80
2024-03-14T00:54:39.143Z,7.80
2024-03-14T00:57:08.474Z,7.80
2024-03-14T00:59:37.850Z,7.80
2024-03-14T01:02:07.142Z,7.80
2024-03-14T01:04:36.013Z,7.80
2024-03-14T01:07:05.267Z,7.80
2024-03-14T01:09:36.543Z,7.80
2024-03-14T01:12:06.269Z,7.80
2024-03-14T01:14:35.905Z,7.80
2024-03-14T01:17:04.885Z,7.80
2024-03-14T01:19:34.341Z,7.80
2024-03-14T01:22:03.930Z,7.80
2024-03-14T01:24:32.942Z,7.80
2024-03-14T01:27:01.977Z,7.80
2024-03-14T01:29:31.362Z,7.80
2024-03-14T01:32:00.686Z,7.80
2024-03-14T01:34:29.816Z,7.80
2024-03-14T01:37:06.512Z,7.80
2024-03-14T01:39:36.433Z,7.80
2024-03-14T01:42:06.060Z,7.76
2024-03-14T01:44:57.912Z,7.80
2024-03-14T01:47:27.285Z,7.80
2024-03-14T01:49:56.421Z,7.80
2024-03-14T01:52:26.229Z,7.78
2024-03-14T01:54:55.230Z,7.74
2024-03-14T01:57:25.752Z,7.70
2024-03-14T01:59:58.591Z,7.70
2024-03-14T02:02:28.641Z,7.70
2024-03-14T02:05:11.153Z,7.70
2024-03-14T02:07:41.256Z,7.70
2024-03-14T02:10:12.740Z,7.70
2024-03-14T02:12:42.950Z,7.70
2024-03-14T02:15:13.415Z,7.70
2024-03-14T02:17:42.734Z,7.66
2024-03-14T02:20:15.106Z,7.60
2024-03-14T02:22:44.647Z,7.60
2024-03-14T02:25:14.686Z,7.60
2024-03-14T02:27:43.678Z,7.56
2024-03-14T02:30:13.055Z,7.56
2024-03-14T02:32:42.113Z,7.60
2024-03-14T02:35:11.446Z,7.60
2024-03-14T02:37:40.421Z,7.60
2024-03-14T02:40:12.092Z,7.60
2024-03-14T02:42:41.104Z,7.60
2024-03-14T02:45:10.689Z,7.60
2024-03-14T02:47:39.841Z,7.60
2024-03-14T02:50:10.044Z,7.60
2024-03-14T02:52:38.948Z,7.60
2024-03-14T02:55:09.054Z,7.50
2024-03-14T02:57:38.142Z,7.52
2024-03-14T03:00:17.033Z,7.50
2024-03-14T03:02:46.675Z,7.50
2024-03-14T03:05:15.920Z,7.50
2024-03-14T03:07:44.975Z,7.50
2024-03-14T03:10:16.581Z,7.50
2024-03-14T03:12:46.127Z,7.50
2024-03-14T03:15:15.939Z,7.50
2024-03-14T03:17:45.265Z,7.50
2024-03-14T03:20:16.498Z,7.50
2024-03-14T03:23:04.588Z,7.50
2024-03-14T03:25:33.694Z,7.50
2024-03-14T03:28:04.458Z,7.50
2024-03-14T03:30:33.590Z,7.44
2024-03-14T03:33:02.929Z,7.40
2024-03-14T03:35:32.062Z,7.40
2024-03-14T03:38:01.168Z,7.40
2024-03-14T03:40:34.608Z,7.40
2024-03-14T03:43:04.298Z,7.40
2024-03-14T03:45:33.427Z,7.40
2024-03-14T03:48:02.648Z,7.40
2024-03-14T03:50:32.228Z,7.42
2024-03-14T03:53:01.783Z,7.40
2024-03-14T03:55:32.550Z,7.40
2024-03-14T03:58:01.513Z,7.40
2024-03-14T04:00:42.320Z,7.40
2024-03-14T04:03:12.267Z,7.40
2024-03-14T04:05:43.177Z,7.40
2024-03-14T04:08:14.822Z,7.40
2024-03-14T04:10:44.774Z,7.40
2024-03-14T04:13:15.609Z,7.40
2024-03-14T04:15:47.084Z,7.40
2024-03-14T04:18:16.124Z,7.40
2024-03-14T04:20:46.817Z,7.40
2024-03-14T04:23:16.518Z,7.40
2024-03-14T04:25:45.491Z,7.40
2024-03-14T04:28:14.502Z,7.40
2024-03-14T04:30:43.458Z,7.40
2024-03-14T04:33:13.535Z,7.40
2024-03-14T04:35:42.532Z,7.40
2024-03-14T04:38:11.664Z,7.40
2024-03-14T04:40:40.765Z,7.40
2024-03-14T04:43:09.819Z,7.40
2024-03-14T04:45:41.250Z,7.40
2024-03-14T04:48:10.478Z,7.40
2024-03-14T04:50:40.775Z,7.40
2024-03-14T04:53:10.410Z,7.34
2024-03-14T04:55:40.120Z,7.30
2024-03-14T04:58:10.125Z,7.30
2024-03-14T05:00:39.353Z,7.30
2024-03-14T05:03:08.505Z,7.30
2024-03-14T05:05:38.481Z,7.30
2024-03-14T05:08:07.850Z,7.30
2024-03-14T05:10:36.746Z,7.30
2024-03-14T05:13:06.270Z,7.30
2024-03-14T05:15:35.346Z,7.30
2024-03-14T05:18:06.213Z,7.30
2024-03-14T05:20:35.278Z,7.30
2024-03-14T05:23:05.944Z,7.30
2024-03-14T05:25:36.286Z,7.30
2024-03-14T05:28:06.933Z,7.30
2024-03-14T05:30:36.804Z,7.32
2024-03-14T05:33:06.235Z,7.30
2024-03-14T05:35:35.367Z,7.30
2024-03-14T05:38:04.996Z,7.30
2024-03-14T05:40:35.278Z,7.30
2024-03-14T05:43:04.470Z,7.30
2024-03-14T05:45:34.786Z,7.30
2024-03-14T05:48:09.820Z,7.30
2024-03-14T05:50:38.973Z,7.30
2024-03-14T05:53:08.006Z,7.30
2024-03-14T05:55:37.198Z,7.30
2024-03-14T05:58:06.663Z,7.30
2024-03-14T06:00:35.767Z,7.30
2024-03-14T06:03:06.346Z,7.30
2024-03-14T06:05:35.782Z,7.40
2024-03-14T06:08:05.781Z,7.40
2024-03-14T06:10:34.939Z,7.40
2024-03-14T06:13:04.415Z,7.40
2024-03-14T06:15:35.904Z,7.40
2024-03-14T06:18:06.601Z,7.40
2024-03-14T06:20:36.746Z,7.40
2024-03-14T06:23:07.125Z,7.44
2024-03-14T06:25:36.430Z,7.50
2024-03-14T06:28:05.901Z,7.50
2024-03-14T06:30:35.830Z,7.50
2024-03-14T06:33:05.731Z,7.50
2024-03-14T06:35:34.883Z,7.60
2024-03-14T06:38:04.532Z,7.60
2024-03-14T06:40:34.211Z,7.60
2024-03-14T06:43:07.319Z,7.60
2024-03-14T06:45:37.613Z,7.60
2024-03-14T06:48:09.748Z,7.66
2024-03-14T06:50:39.066Z,7.70
2024-03-14T06:53:08.663Z,7.70
2024-03-14T06:55:37.561Z,7.70
2024-03-14T06:58:06.683Z,7.80
2024-03-14T07:00:35.871Z,7.80
2024-03-14T07:03:05.876Z,7.86
2024-03-14T07:05:34.876Z,7.90
2024-03-14T07:08:05.898Z,7.90
2024-03-14T07:10:34.990Z,7.90
2024-03-14T07:13:04.125Z,8.00
2024-03-14T07:15:33.827Z,8.00
2024-03-14T07:18:05.873Z,8.00
2024-03-14T07:20:36.432Z,8.00
2024-03-14T07:23:07.006Z,8.10
2024-03-14T07:25:36.007Z,8.12
2024-03-14T07:28:10.077Z,8.20
2024-03-14T07:30:40.679Z,8.22
2024-03-14T07:33:10.014Z,8.30
2024-03-14T07:35:45.388Z,8.30
2024-03-14T07:38:14.371Z,8.40
2024-03-14T07:40:43.912Z,8.40
2024-03-14T07:43:13.266Z,8.50
2024-03-14T07:45:42.345Z,8.60
2024-03-14T07:48:12.276Z,8.60
2024-03-14T07:50:41.867Z,8.70
2024-03-14T07:53:12.908Z,8.80
2024-03-14T07:55:42.349Z,8.86
2024-03-14T07:58:12.334Z,8.90
2024-03-14T08:00:41.311Z,8.98
2024-03-14T08:03:12.341Z,9.00
2024-03-14T08:05:42.163Z,9.10
2024-03-14T08:08:19.641Z,9.14
2024-03-14T08:10:51.858Z,9.24
2024-03-14T08:13:21.320Z,9.30
2024-03-14T08:15:53.149Z,9.40
2024-03-14T08:18:23.073Z,9.40
2024-03-14T08:20:56.316Z,9.50
2024-03-14T08:23:27.122Z,9.50
2024-03-14T08:25:56.772Z,9.60
2024-03-14T08:28:25.878Z,9.70
2024-03-14T08:30:54.886Z,9.80
2024-03-14T08:33:24.973Z,9.88
2024-03-14T08:35:55.432Z,9.94
2024-03-14T08:38:25.059Z,10.00
2024-03-14T08:40:53.984Z,10.10
2024-03-14T08:43:22.993Z,10.10
2024-03-14T08:45:53.195Z,10.20
2024-03-14T08:48:22.435Z,10.20
2024-03-14T08:50:51.946Z,10.30
2024-03-14T08:53:21.149Z,10.30
2024-03-14T08:55:54.775Z,10.40
2024-03-14T08:58:25.903Z,10.40
2024-03-14T09:00:55.103Z,10.50
2024-03-14T09:03:24.438Z,10.50
2024-03-14T09:05:53.869Z,10.50
2024-03-14T09:08:24.987Z,10.50
2024-03-14T09:10:54.137Z,10.60
2024-03-14T09:13:24.226Z,10.60
2024-03-14T09:15:53.315Z,10.68
2024-03-14T09:18:25.573Z,10.70
2024-03-14T09:20:55.878Z,10.70
2024-03-14T09:23:25.972Z,10.80
2024-03-14T09:25:56.069Z,10.80
2024-03-14T09:28:29.034Z,10.80
2024-03-14T09:31:01.462Z,10.74
2024-03-14T09:33:32.755Z,10.74
2024-03-14T09:36:05.043Z,10.78
2024-03-14T09:38:35.480Z,10.76
2024-03-14T09:41:10.188Z,10.76
2024-03-14T09:43:47.543Z,10.70
2024-03-14T09:46:22.893Z,10.76
2024-03-14T09:48:52.162Z,10.70
2024-03-14T09:51:21.548Z,10.70
2024-03-14T09:53:55.118Z,10.70
2024-03-14T09:56:26.523Z,10.70
2024-03-14T09:58:57.291Z,10.70
2024-03-14T10:01:27.429Z,10.70
2024-03-14T10:03:57.912Z,10.70
2024-03-14T10:06:27.184Z,10.76
2024-03-14T10:08:57.799Z,10.80
2024-03-14T10:11:28.846Z,10.80
2024-03-14T10:14:16.856Z,10.80
2024-03-14T10:16:45.911Z,10.80
2024-03-14T10:19:16.396Z,10.88
2024-03-14T10:34:59.989Z,10.90
2024-03-14T10:37:34.045Z,11.00
2024-03-14T10:40:19.268Z,11.00
2024-03-14T10:42:51.755Z,11.00
2024-03-14T10:45:22.329Z,11.06
2024-03-14T10:47:52.315Z,11.10
2024-03-14T10:50:22.070Z,11.12
2024-03-14T10:52:51.832Z,11.20
2024-03-14T10:55:24.489Z,11.20
2024-03-14T10:57:58.287Z,11.30
2024-03-14T11:00:27.452Z,11.30
2024-03-14T11:02:59.861Z,11.30
2024-03-14T11:05:29.199Z,11.30
2024-03-14T11:08:00.859Z,11.30
2024-03-14T11:10:31.948Z,11.30
2024-03-14T11:13:10.663Z,11.40
2024-03-14T11:15:41.339Z,11.40
2024-03-14T11:18:14.073Z,11.40
2024-03-14T11:20:50.886Z,11.50
2024-03-14T11:23:29.959Z,11.50
2024-03-14T11:26:08.605Z,11.50
2024-03-14T11:28:38.513Z,11.54
2024-03-14T11:31:07.878Z,11.50
2024-03-14T11:33:39.423Z,11.50
2024-03-14T11:36:12.890Z,11.50
2024-03-14T11:38:44.733Z,11.50
2024-03-14T11:41:14.627Z,11.50
2024-03-14T11:43:45.019Z,11.58
2024-03-14T11:46:15.782Z,11.60
2024-03-14T11:48:45.836Z,11.60
2024-03-14T11:51:19.237Z,11.60
2024-03-14T11:53:51.777Z,11.60
2024-03-14T11:56:23.371Z,11.60
2024-03-14T11:58:52.796Z,11.54
2024-03-14T12:01:28.004Z,11.50
2024-03-14T12:04:01.782Z,11.50
2024-03-14T12:06:32.311Z,11.50
2024-03-14T12:09:01.527Z,11.50
2024-03-14T12:11:33.023Z,11.50
2024-03-14T12:14:02.445Z,11.44
2024-03-14T12:16:33.050Z,11.40
2024-03-14T12:19:17.571Z,11.40
2024-03-14T12:22:00.762Z,11.40
2024-03-14T12:24:30.094Z,11.40
2024-03-14T12:26:59.387Z,11.40
2024-03-14T12:29:29.335Z,11.50
2024-03-14T12:32:00.628Z,11.50
2024-03-14T12:34:30.821Z,11.50
2024-03-14T12:37:01.141Z,11.50
2024-03-14T12:39:30.393Z,11.50
2024-03-14T12:41:59.639Z,11.50
2024-03-14T12:44:29.143Z,11.50
2024-03-14T12:46:58.665Z,11.52
2024-03-14T12:49:28.916Z,11.60
2024-03-14T12:51:58.075Z,11.60
2024-03-14T12:54:35.922Z,11.60
2024-03-14T12:57:10.085Z,11.60
2024-03-14T12:59:39.315Z,11.60
2024-03-14T13:02:12.915Z,11.60
2024-03-14T13:04:43.599Z,11.50
2024-03-14T13:07:19.365Z,11.50
2024-03-14T13:10:10.398Z,11.50
2024-03-14T13:12:39.746Z,11.50
2024-03-14T13:15:12.001Z,11.50
2024-03-14T13:17:47.217Z,11.50
2024-03-14T13:20:19.497Z,11.50
2024-03-14T13:22:49.295Z,11.48
2024-03-14T13:25:18.739Z,11.44
2024-03-14T13:27:48.926Z,11.44
2024-03-14T13:30:20.390Z,11.50
2024-03-14T13:32:57.132Z,11.50
2024-03-14T13:35:30.717Z,11.50
2024-03-14T13:38:00.842Z,11.60
2024-03-14T13:40:31.744Z,11.60
2024-03-14T13:43:07.260Z,11.60
2024-03-14T13:45:44.658Z,11.60
2024-03-14T13:48:18.845Z,11.60
2024-03-14T13:50:54.588Z,11.60
2024-03-14T13:56:02.286Z,11.60
2024-03-14T13:58:39.289Z,11.60
2024-03-14T14:01:20.147Z,11.54
2024-03-14T14:03:53.830Z,11.50
2024-03-14T14:06:24.204Z,11.50
2024-03-14T14:08:55.832Z,11.40
2024-03-14T14:11:28.183Z,11.40
2024-03-14T14:13:58.188Z,11.40
2024-03-14T14:16:28.700Z,11.40
2024-03-14T14:19:00.778Z,11.30
2024-03-14T14:21:31.808Z,11.30
2024-03-14T14:24:02.008Z,11.30
2024-03-14T14:26:33.188Z,11.30
2024-03-14T14:29:05.279Z,11.30
2024-03-14T14:31:34.775Z,11.30
2024-03-14T14:34:04.848Z,11.30
2024-03-14T14:36:35.053Z,11.30
2024-03-14T14:39:04.754Z,11.30
2024-03-14T14:41:34.625Z,11.30
2024-03-14T14:44:04.438Z,11.30
2024-03-14T14:46:35.891Z,11.30
2024-03-14T14:49:08.180Z,11.26
2024-03-14T14:51:38.642Z,11.20
2024-03-14T14:54:08.932Z,11.20
2024-03-14T14:56:44.353Z,11.20
2024-03-14T14:59:13.422Z,11.20
2024-03-14T15:01:42.835Z,11.20
2024-03-14T15:04:13.459Z,11.20
2024-03-14T15:06:42.563Z,11.14
2024-03-14T15:09:15.154Z,11.10
2024-03-14T15:11:45.939Z,11.10
2024-03-14T15:14:15.165Z,11.10
2024-03-14T15:16:44.214Z,11.10
2024-03-14T15:19:13.303Z,11.02
2024-03-14T15:21:42.559Z,11.00
2024-03-14T15:24:12.653Z,11.00
2024-03-14T15:26:44.505Z,11.00
2024-03-14T15:29:14.736Z,11.00
2024-03-14T15:31:43.726Z,11.00
2024-03-14T15:34:13.481Z,11.00
2024-03-14T15:36:42.667Z,11.00
2024-03-14T15:39:11.765Z,10.98
2024-03-14T15:41:42.173Z,10.98
2024-03-14T15:44:11.384Z,10.90
2024-03-14T15:46:40.374Z,10.90
2024-03-14T15:49:09.585Z,10.90
2024-03-14T15:51:39.717Z,10.90
2024-03-14T15:54:08.964Z,10.90
2024-03-14T15:56:37.911Z,10.90
2024-03-14T15:59:06.913Z,10.90
2024-03-14T16:01:37.598Z,10.80
2024-03-14T16:04:08.745Z,10.80
2024-03-14T16:06:38.631Z,10.80
2024-03-14T16:09:09.735Z,10.80
2024-03-14T16:11:40.284Z,10.80
2024-03-14T16:14:10.009Z,10.80
2024-03-14T16:16:39.622Z,10.72
2024-03-14T16:19:13.597Z,10.70
2024-03-14T16:21:45.336Z,10.70
2024-03-14T16:24:14.491Z,10.70
2024-03-14T16:26:44.163Z,10.62
2024-03-14T16:29:13.664Z,10.60
2024-03-14T16:31:44.832Z,10.60
2024-03-14T16:34:15.136Z,10.60
2024-03-14T16:36:45.939Z,10.56
2024-03-14T16:39:19.268Z,10.50
2024-03-14T16:41:48.524Z,10.50
2024-03-14T16:44:18.040Z,10.50
2024-03-14T16:46:47.149Z,10.46
2024-03-14T16:49:16.810Z,10.40
2024-03-14T16:51:45.813Z,10.40
2024-03-14T16:54:21.998Z,10.40
2024-03-14T16:56:52.511Z,10.38
2024-03-14T16:59:21.595Z,10.30
2024-03-14T17:01:51.097Z,10.30
2024-03-14T17:04:20.349Z,10.30
2024-03-14T17:06:49.722Z,10.30
2024-03-14T17:09:19.768Z,10.20
2024-03-14T17:11:48.873Z,10.20
2024-03-14T17:14:18.019Z,10.16
2024-03-14T17:16:52.734Z,10.10
2024-03-14T17:19:27.653Z,10.10
2024-03-14T17:21:56.713Z,10.10
2024-03-14T17:24:26.751Z,10.10
2024-03-14T17:26:56.925Z,10.08
2024-03-14T17:29:29.199Z,10.00
2024-03-14T17:32:00.166Z,10.00
2024-03-14T17:34:30.425Z,10.00
2024-03-14T17:37:01.596Z,9.94
2024-03-14T17:39:32.358Z,9.90
2024-03-14T17:42:01.691Z,9.90
2024-03-14T17:44:31.491Z,9.80
2024-03-14T17:47:00.691Z,9.80
2024-03-14T17:49:30.096Z,9.78
2024-03-14T17:51:59.276Z,9.70
2024-03-14T17:54:28.427Z,9.70
2024-03-14T17:57:00.551Z,9.70
2024-03-14T17:59:31.514Z,9.60
2024-03-14T18:02:04.928Z,9.60
2024-03-14T18:04:34.286Z,9.60
2024-03-14T18:07:04.625Z,9.50
2024-03-14T18:09:33.621Z,9.50
2024-03-14T18:12:02.835Z,9.50
2024-03-14T18:14:35.154Z,9.42
2024-03-14T18:17:04.594Z,9.40
2024-03-14T18:19:33.744Z,9.40
2024-03-14T18:22:03.916Z,9.30
2024-03-14T18:24:36.345Z,9.30
2024-03-14T18:27:06.893Z,9.30
2024-03-14T18:29:36.600Z,9.30
2024-03-14T18:32:13.362Z,9.20
2024-03-14T18:34:42.624Z,9.20
2024-03-14T18:37:11.633Z,9.20
2024-03-14T18:39:41.768Z,9.20
2024-03-14T18:42:11.051Z,9.18
2024-03-14T18:44:47.729Z,9.12
2024-03-14T18:47:17.906Z,9.10
2024-03-14T18:49:47.109Z,9.10
2024-03-14T18:52:16.908Z,9.04
2024-03-14T18:54:49.741Z,9.00
2024-03-14T18:57:19.239Z,9.00
2024-03-14T18:59:48.295Z,8.98
2024-03-14T19:02:20.878Z,8.90
2024-03-14T19:04:51.908Z,8.90
2024-03-14T19:07:21.260Z,8.80
2024-03-14T19:09:50.574Z,8.80
2024-03-14T19:12:20.141Z,8.70
2024-03-14T19:14:49.600Z,8.70
2024-03-14T19:17:22.118Z,8.60
2024-03-14T19:19:53.190Z,8.50
2024-03-14T19:22:22.306Z,8.40
2024-03-14T19:24:51.418Z,8.40
2024-03-14T19:27:20.562Z,8.40
2024-03-14T19:29:49.709Z,8.32
2024-03-14T19:32:19.816Z,8.30
2024-03-14T19:34:49.366Z,8.30
2024-03-14T19:37:19.514Z,8.30
2024-03-14T19:40:27.142Z,8.22
2024-03-14T19:42:59.663Z,8.20
2024-03-14T19:45:32.616Z,8.20
2024-03-14T19:48:05.549Z,8.20
2024-03-14T19:50:38.015Z,8.18
2024-03-14T19:53:11.150Z,8.10
2024-03-14T19:55:43.993Z,8.10
2024-03-14T19:58:19.826Z,8.10
2024-03-14T20:00:52.749Z,8.10
2024-03-14T20:03:25.800Z,8.00
2024-03-14T20:05:59.860Z,8.00
2024-03-14T20:08:32.230Z,7.92
2024-03-14T20:11:05.102Z,7.90
2024-03-14T20:13:37.747Z,7.88
2024-03-14T20:16:16.230Z,7.80
2024-03-14T20:18:48.959Z,7.80
2024-03-14T20:21:21.589Z,7.80
2024-03-14T20:23:54.078Z,7.80
2024-03-14T20:26:27.397Z,7.80
2024-03-14T20:29:01.528Z,7.80
2024-03-14T20:31:34.099Z,7.70
2024-03-14T20:34:08.904Z,7.66
2024-03-14T20:36:41.722Z,7.60
2024-03-14T20:39:21.252Z,7.58
2024-03-14T20:41:55.172Z,7.56
2024-03-14T20:44:29.270Z,7.50
2024-03-14T20:47:01.759Z,7.50
2024-03-14T20:49:34.466Z,7.60
2024-03-14T20:52:07.675Z,7.60
2024-03-14T20:54:41.766Z,7.60
2024-03-14T20:57:15.663Z,7.60
2024-03-14T20:59:48.963Z,7.60
2024-03-14T21:02:25.603Z,7.60
2024-03-14T21:04:59.392Z,7.50
2024-03-14T21:07:31.846Z,7.50
2024-03-14T21:10:05.443Z,7.50
2024-03-14T21:12:42.900Z,7.40
2024-03-14T21:15:16.733Z,7.40
2024-03-14T21:17:50.453Z,7.40
2024-03-14T21:20:24.839Z,7.40
2024-03-14T21:22:59.499Z,7.30
2024-03-14T21:25:31.889Z,7.30
2024-03-14T21:28:04.555Z,7.30
2024-03-14T21:30:38.945Z,7.30
2024-03-14T21:33:11.891Z,7.30
2024-03-14T21:35:45.647Z,7.30
2024-03-14T21:38:18.316Z,7.24
2024-03-14T21:40:50.721Z,7.30
2024-03-14T21:43:23.253Z,7.20
2024-03-14T21:45:55.697Z,7.20
2024-03-14T21:48:28.411Z,7.20
2024-03-14T21:51:01.097Z,7.20
2024-03-14T21:53:33.588Z,7.20
2024-03-14T21:56:09.889Z,7.10
2024-03-14T21:58:49.873Z,7.10
2024-03-14T22:01:27.165Z,7.10
2024-03-14T22:03:59.796Z,7.10
2024-03-14T22:06:32.237Z,7.06
2024-03-14T22:09:05.093Z,7.00
2024-03-14T22:11:38.064Z,7.00
2024-03-14T22:14:10.749Z,7.00
2024-03-14T22:16:43.139Z,6.90
2024-03-14T22:19:16.054Z,6.90
2024-03-14T22:21:48.675Z,6.90
2024-03-14T22:24:22.623Z,6.90
2024-03-14T22:26:55.300Z,6.86
2024-03-14T22:29:29.040Z,6.80
2024-03-14T22:32:01.903Z,6.70
2024-03-14T22:34:37.173Z,6.70
2024-03-14T22:37:09.639Z,6.70
2024-03-14T22:39:43.076Z,6.66
2024-03-14T22:42:15.929Z,6.60
2024-03-14T22:44:49.587Z,6.60
2024-03-14T22:47:22.179Z,6.60
2024-03-14T22:49:54.681Z,6.60
2024-03-14T22:52:27.661Z,6.54
2024-03-14T22:55:00.129Z,6.50
2024-03-14T22:57:34.119Z,6.50
2024-03-14T23:00:20.501Z,6.50
2024-03-14T23:02:52.996Z,6.48
2024-03-14T23:05:25.406Z,6.40
2024-03-14T23:07:58.281Z,6.38
2024-03-14T23:10:30.911Z,6.30
2024-03-14T23:13:03.455Z,6.26
2024-03-14T23:15:38.908Z,6.22
2024-03-14T23:18:12.031Z,6.30
2024-03-14T23:20:45.026Z,6.30
2024-03-14T23:23:18.510Z,6.30
2024-03-14T23:25:50.922Z,6.30
2024-03-14T23:28:25.762Z,6.20
2024-03-14T23:30:58.427Z,6.20
2024-03-14T23:33:30.921Z,6.22
2024-03-14T23:36:03.411Z,6.26
2024-03-14T23:38:36.137Z,6.28
2024-03-14T23:41:10.416Z,6.20
2024-03-14T23:43:43.390Z,6.20
2024-03-14T23:46:16.068Z,6.20
2024-03-14T23:48:48.996Z,6.20
2024-03-14T23:51:21.720Z,6.20
2024-03-14T23:53:54.233Z,6.12
2024-03-14T23:56:26.669Z,6.10
2024-03-14T23:58:59.100Z,6.10
